Time;durP1;ratioP1;P1;durP2;ratioP2;P2;SDS_P1;SDS_P2;PMS_P1;PMS_P2;Temp;Humidity;BMP_temperature;BMP_pressure;BME280_temperature;BME280_humidity;BME280_pressure;Samples;Min_cycle;Max_cycle;Signal;HPM_P1;HPM_P2
2022/03/17 00:01:47;;;;;;;2.30;2.10;;;17.10;57.10;;;;;;5231217;28;20207;-65
2022/03/17 00:04:39;;;;;;;2.40;2.07;;;17.00;57.00;;;;;;5232006;28;20221;-65
2022/03/17 00:07:31;;;;;;;2.13;1.93;;;17.00;57.00;;;;;;5231155;28;20315;-65
2022/03/17 00:10:23;;;;;;;2.17;1.97;;;17.00;57.00;;;;;;5232672;28;20839;-65
2022/03/17 00:13:16;;;;;;;2.40;2.20;;;17.00;57.00;;;;;;5231250;28;20196;-65
2022/03/17 00:16:10;;;;;;;2.33;1.97;;;17.10;57.00;;;;;;5212095;28;20772;-65
2022/03/17 00:19:07;;;;;;;2.30;2.00;;;17.10;57.00;;;;;;5211386;28;20193;-65
2022/03/17 00:22:00;;;;;;;2.57;2.23;;;17.00;57.00;;;;;;5211498;28;20189;-65
2022/03/17 00:24:53;;;;;;;2.43;2.23;;;17.10;57.10;;;;;;5217153;28;20217;-66
2022/03/17 00:27:46;;;;;;;2.40;2.20;;;17.10;57.00;;;;;;5231260;28;20212;-64
2022/03/17 00:30:39;;;;;;;3.20;2.23;;;17.10;57.10;;;;;;5232023;28;20567;-65
2022/03/17 00:33:31;;;;;;;2.30;2.10;;;17.10;57.10;;;;;;5231842;28;20196;-65
2022/03/17 00:36:23;;;;;;;2.53;1.97;;;17.00;57.00;;;;;;5230416;28;20197;-65
2022/03/17 00:39:15;;;;;;;2.47;2.27;;;17.00;57.00;;;;;;5210747;28;20251;-65
2022/03/17 00:42:08;;;;;;;2.40;2.20;;;17.00;57.10;;;;;;5210816;28;20292;-65
2022/03/17 00:45:00;;;;;;;2.43;2.20;;;17.10;57.10;;;;;;5230822;28;20255;-65
2022/03/17 00:47:53;;;;;;;2.43;2.07;;;17.00;57.10;;;;;;5231040;28;20193;-65
2022/03/17 00:50:45;;;;;;;2.33;2.03;;;17.00;57.10;;;;;;5230826;28;20193;-64
2022/03/17 00:53:37;;;;;;;2.43;2.23;;;17.00;57.10;;;;;;5231375;28;20567;-65
2022/03/17 00:56:30;;;;;;;2.80;2.07;;;17.00;57.10;;;;;;5214655;28;20207;-65
2022/03/17 00:59:22;;;;;;;3.43;2.30;;;17.00;57.20;;;;;;5231111;28;20204;-65
2022/03/17 01:02:14;;;;;;;3.10;2.60;;;17.00;57.20;;;;;;5230453;28;20199;-65
2022/03/17 01:05:08;;;;;;;2.30;2.10;;;17.00;57.20;;;;;;5230655;28;20282;-65
2022/03/17 01:08:00;;;;;;;2.37;2.17;;;17.00;57.10;;;;;;5227703;28;20193;-65
2022/03/17 01:10:52;;;;;;;2.70;2.50;;;17.00;57.10;;;;;;5227961;28;20247;-65
2022/03/17 01:13:44;;;;;;;2.90;2.63;;;17.00;57.10;;;;;;5227973;28;20263;-63
2022/03/17 01:16:36;;;;;;;2.33;2.13;;;17.00;57.10;;;;;;5227916;28;20192;-65
2022/03/17 01:19:29;;;;;;;2.63;2.40;;;17.00;57.10;;;;;;5223208;28;20721;-65
2022/03/17 01:22:23;;;;;;;3.47;2.40;;;17.00;57.10;;;;;;5227756;28;20202;-65
2022/03/17 01:25:15;;;;;;;2.07;1.87;;;17.00;57.20;;;;;;5227979;28;20217;-65
2022/03/17 01:28:07;;;;;;;4.20;2.87;;;17.00;57.20;;;;;;5227468;28;20272;-65
2022/03/17 01:30:59;;;;;;;2.83;2.53;;;17.00;57.20;;;;;;5226818;28;20211;-65
2022/03/17 01:33:53;;;;;;;2.80;2.50;;;17.00;57.30;;;;;;5227115;28;20209;-65
2022/03/17 01:36:46;;;;;;;2.67;2.47;;;17.00;57.20;;;;;;5227161;28;20572;-64
2022/03/17 01:39:40;;;;;;;2.63;2.43;;;17.00;57.20;;;;;;5227547;28;20296;-66
2022/03/17 01:42:32;;;;;;;3.13;2.70;;;17.00;57.30;;;;;;5227141;28;20197;-65
2022/03/17 01:45:26;;;;;;;3.17;2.83;;;17.00;57.20;;;;;;5226497;28;20704;-66
2022/03/17 01:48:19;;;;;;;2.50;2.30;;;17.00;57.20;;;;;;5220493;28;20576;-65
2022/03/17 01:51:12;;;;;;;2.47;2.23;;;17.00;57.20;;;;;;5226933;28;20201;-65
2022/03/17 01:54:04;;;;;;;2.70;2.50;;;17.00;57.20;;;;;;5226309;28;20228;-65
2022/03/17 01:56:58;;;;;;;2.50;2.30;;;17.10;57.30;;;;;;5227918;28;20201;-66
2022/03/17 01:59:52;;;;;;;2.90;2.60;;;17.00;57.30;;;;;;5226519;28;20204;-65
2022/03/17 02:02:45;;;;;;;3.00;2.70;;;17.00;57.20;;;;;;5226976;28;20199;-65
2022/03/17 02:05:38;;;;;;;3.10;2.80;;;17.00;57.30;;;;;;5227093;28;20224;-66
2022/03/17 02:08:30;;;;;;;3.20;2.57;;;17.00;57.30;;;;;;5226771;28;20263;-65
2022/03/17 02:14:34;;;;;;;3.20;2.90;;;17.00;57.30;;;;;;5226310;28;20208;-65
2022/03/17 02:17:27;;;;;;;3.03;2.80;;;17.00;57.30;;;;;;5227107;28;20205;-65
2022/03/17 02:20:20;;;;;;;3.23;2.93;;;17.00;57.30;;;;;;5219518;28;20202;-65
2022/03/17 02:26:23;;;;;;;2.87;2.53;;;17.00;57.40;;;;;;5226332;28;20210;-65
2022/03/17 02:29:15;;;;;;;2.90;2.60;;;17.00;57.90;;;;;;5226060;28;20198;-65
2022/03/17 02:32:09;;;;;;;3.20;2.63;;;17.00;57.30;;;;;;5224593;28;20672;-65
2022/03/17 02:35:05;;;;;;;3.77;3.10;;;17.00;57.40;;;;;;5225408;28;20228;-65
2022/03/17 02:37:58;;;;;;;3.30;2.90;;;17.00;57.30;;;;;;5225728;28;20194;-65
2022/03/17 02:40:52;;;;;;;3.17;2.80;;;17.00;57.40;;;;;;5225188;28;20197;-65
2022/03/17 02:43:45;;;;;;;3.37;2.80;;;17.00;57.30;;;;;;5225354;28;20232;-65
2022/03/17 02:46:37;;;;;;;2.80;2.50;;;17.00;57.40;;;;;;5225074;28;20220;-65
2022/03/17 02:49:29;;;;;;;3.17;2.87;;;17.00;57.40;;;;;;5226701;28;20199;-65
2022/03/17 02:52:22;;;;;;;2.63;2.43;;;17.00;57.40;;;;;;5225303;28;20200;-65
2022/03/17 02:55:15;;;;;;;3.50;3.13;;;17.00;57.40;;;;;;5225625;28;20213;-65
2022/03/17 02:58:10;;;;;;;3.30;3.00;;;17.00;57.40;;;;;;5224545;28;20197;-66
2022/03/17 03:01:02;;;;;;;3.13;2.83;;;17.00;57.40;;;;;;5220370;28;20677;-64
2022/03/17 03:03:54;;;;;;;2.83;2.50;;;17.00;57.40;;;;;;5223740;28;20229;-65
2022/03/17 03:06:46;;;;;;;3.50;3.20;;;17.00;57.40;;;;;;5209658;28;20684;-63
2022/03/17 03:09:38;;;;;;;2.93;2.67;;;17.00;57.40;;;;;;5209567;28;20196;-65
2022/03/17 03:12:30;;;;;;;3.20;2.77;;;17.00;57.40;;;;;;5225894;28;20204;-65
2022/03/17 03:15:24;;;;;;;3.40;2.73;;;17.00;57.40;;;;;;5225369;28;20221;-65
2022/03/17 03:18:16;;;;;;;3.97;3.50;;;17.00;57.40;;;;;;5225458;28;20323;-66
2022/03/17 03:21:08;;;;;;;4.50;3.30;;;17.00;57.40;;;;;;5224750;28;20193;-65
2022/03/17 03:24:00;;;;;;;3.50;3.20;;;17.00;57.40;;;;;;5225697;28;20217;-65
2022/03/17 03:26:52;;;;;;;3.80;3.33;;;17.00;57.40;;;;;;5225114;28;20303;-65
2022/03/17 03:29:44;;;;;;;4.33;3.20;;;17.00;57.40;;;;;;5224517;28;20557;-66
2022/03/17 03:32:39;;;;;;;3.43;3.13;;;17.00;57.40;;;;;;5224452;28;20334;-65
2022/03/17 03:38:40;;;;;;;3.47;3.17;;;17.00;57.50;;;;;;5225424;28;20189;-65
2022/03/17 03:41:32;;;;;;;3.60;3.30;;;17.00;57.40;;;;;;5224730;28;20205;-65
2022/03/17 03:44:24;;;;;;;3.90;3.50;;;17.00;57.40;;;;;;5224522;28;20224;-65
2022/03/17 03:47:17;;;;;;;3.17;2.87;;;17.00;57.50;;;;;;5224799;28;20588;-65
2022/03/17 03:50:11;;;;;;;3.97;3.37;;;17.00;57.50;;;;;;5225231;28;20205;-65
2022/03/17 03:53:03;;;;;;;3.50;3.20;;;17.00;57.50;;;;;;5222329;28;20614;-65
2022/03/17 03:55:55;;;;;;;3.90;3.37;;;17.00;57.50;;;;;;5223079;28;20196;-65
2022/03/17 03:58:47;;;;;;;3.60;3.30;;;17.00;57.50;;;;;;5224298;28;20197;-64
2022/03/17 04:01:39;;;;;;;4.07;3.67;;;17.00;57.50;;;;;;5224556;28;20275;-65
2022/03/17 04:04:34;;;;;;;4.10;3.70;;;17.00;57.50;;;;;;5224713;28;20224;-65
2022/03/17 04:07:27;;;;;;;3.93;3.53;;;17.00;57.50;;;;;;5225879;28;20252;-65
2022/03/17 04:10:19;;;;;;;3.77;3.43;;;17.00;57.50;;;;;;5224710;28;20229;-65
2022/03/17 04:13:11;;;;;;;3.53;3.23;;;17.00;57.50;;;;;;5223638;28;20193;-65
2022/03/17 04:16:04;;;;;;;3.87;3.47;;;17.00;57.50;;;;;;5224193;28;20200;-65
2022/03/17 04:18:56;;;;;;;3.57;3.23;;;17.00;57.50;;;;;;5224653;28;20262;-66
2022/03/17 04:21:50;;;;;;;4.10;3.70;;;17.00;57.50;;;;;;5224528;28;20660;-65
2022/03/17 04:24:43;;;;;;;3.87;3.50;;;17.00;57.50;;;;;;5223994;28;20220;-66
2022/03/17 04:27:35;;;;;;;3.73;3.43;;;17.00;58.10;;;;;;5225123;28;20807;-65
2022/03/17 04:30:28;;;;;;;4.30;3.60;;;17.00;57.50;;;;;;5224848;28;20192;-65
2022/03/17 04:33:20;;;;;;;3.97;3.57;;;16.90;57.40;;;;;;5223958;28;20229;-65
2022/03/17 04:36:12;;;;;;;3.60;3.30;;;17.00;57.50;;;;;;5224782;28;20319;-66
2022/03/17 04:39:06;;;;;;;4.10;3.70;;;17.00;57.50;;;;;;5224051;28;20201;-66
2022/03/17 04:41:59;;;;;;;3.67;3.37;;;17.00;57.50;;;;;;5224064;28;20193;-65
2022/03/17 04:44:51;;;;;;;4.17;3.77;;;17.00;57.50;;;;;;5228241;28;20213;-64
2022/03/17 04:47:43;;;;;;;4.80;3.77;;;17.00;57.40;;;;;;5227493;28;20209;-65
2022/03/17 04:50:35;;;;;;;3.70;3.40;;;17.00;57.50;;;;;;5228042;28;20690;-66
2022/03/17 04:53:28;;;;;;;4.30;3.90;;;17.00;57.40;;;;;;5227719;28;20197;-66
2022/03/17 04:56:20;;;;;;;3.50;3.20;;;17.10;57.40;;;;;;5227882;28;20189;-65
2022/03/17 04:59:13;;;;;;;3.80;3.43;;;17.00;57.40;;;;;;5227891;28;20247;-66
2022/03/17 05:02:05;;;;;;;4.00;3.60;;;17.10;57.40;;;;;;5228078;28;20563;-65
2022/03/17 05:04:57;;;;;;;3.70;3.40;;;17.10;57.40;;;;;;5227668;28;20221;-65
2022/03/17 05:07:50;;;;;;;4.00;3.70;;;17.10;57.50;;;;;;5227830;28;20228;-64
2022/03/17 05:10:43;;;;;;;3.77;3.47;;;17.10;57.40;;;;;;5227125;28;20211;-66
2022/03/17 05:13:36;;;;;;;4.13;3.70;;;17.10;57.40;;;;;;5227273;28;20224;-65
2022/03/17 05:16:29;;;;;;;4.37;3.80;;;17.10;57.50;;;;;;5227577;28;20185;-65
2022/03/17 05:19:21;;;;;;;4.37;3.60;;;17.10;57.50;;;;;;5221047;28;20197;-66
2022/03/17 05:22:13;;;;;;;3.60;3.30;;;17.10;57.50;;;;;;5227110;28;20580;-66
2022/03/17 05:25:06;;;;;;;3.87;3.53;;;17.10;57.40;;;;;;5228026;28;20220;-66
2022/03/17 05:27:59;;;;;;;4.00;3.57;;;17.10;57.40;;;;;;5227720;28;20577;-66
2022/03/17 05:30:51;;;;;;;4.63;3.87;;;17.10;57.40;;;;;;5227481;28;20197;-65
2022/03/17 05:33:45;;;;;;;3.93;3.50;;;17.10;57.40;;;;;;5227309;28;20254;-65
2022/03/17 05:36:37;;;;;;;4.33;3.93;;;17.10;57.30;;;;;;5235783;28;20184;-65
2022/03/17 05:39:29;;;;;;;3.87;3.47;;;17.10;57.30;;;;;;5247933;28;20663;-65
2022/03/17 05:42:21;;;;;;;4.00;3.53;;;17.10;57.30;;;;;;5247512;28;20552;-65
2022/03/17 05:45:15;;;;;;;4.37;3.83;;;17.20;57.40;;;;;;5247673;28;20223;-66
2022/03/17 05:48:08;;;;;;;4.67;3.93;;;17.10;57.30;;;;;;5247767;28;20239;-65
2022/03/17 05:51:02;;;;;;;3.73;3.43;;;17.20;57.30;;;;;;5232950;28;20193;-66
2022/03/17 05:53:54;;;;;;;4.60;3.80;;;17.10;57.30;;;;;;5225765;28;20595;-66
2022/03/17 05:56:46;;;;;;;4.60;4.20;;;17.10;57.30;;;;;;5226229;28;20185;-65
2022/03/17 05:59:39;;;;;;;4.00;3.70;;;17.10;57.30;;;;;;5226576;28;20197;-65
2022/03/17 06:02:32;;;;;;;4.20;3.50;;;17.20;57.30;;;;;;5225843;28;20193;-65
2022/03/17 06:05:25;;;;;;;4.40;4.00;;;17.20;57.30;;;;;;5226548;28;20209;-65
2022/03/17 06:08:19;;;;;;;4.27;3.87;;;17.20;57.40;;;;;;5227286;28;20197;-65
2022/03/17 06:11:11;;;;;;;4.73;3.67;;;17.20;57.30;;;;;;5226800;28;20276;-66
2022/03/17 06:14:03;;;;;;;4.37;3.97;;;17.20;57.30;;;;;;5226617;28;20750;-66
2022/03/17 06:16:55;;;;;;;3.83;3.53;;;17.20;57.40;;;;;;5228516;28;20287;-66
2022/03/17 06:19:47;;;;;;;4.40;4.00;;;17.20;57.40;;;;;;5226262;28;20197;-65
2022/03/17 06:22:40;;;;;;;3.97;3.67;;;17.20;57.40;;;;;;5226176;28;20205;-66
2022/03/17 06:25:36;;;;;;;4.53;4.10;;;17.20;57.40;;;;;;5225683;28;20229;-66
2022/03/17 06:28:28;;;;;;;4.57;4.10;;;17.20;57.30;;;;;;5225515;28;20185;-67
2022/03/17 06:31:20;;;;;;;4.90;4.00;;;17.20;57.30;;;;;;5224948;28;20204;-68
2022/03/17 06:34:12;;;;;;;4.37;3.97;;;17.20;57.30;;;;;;5226531;28;20220;-66
2022/03/17 06:37:04;;;;;;;5.87;3.80;;;17.20;57.30;;;;;;5226610;28;20200;-65
2022/03/17 06:39:57;;;;;;;4.23;3.83;;;17.20;57.30;;;;;;5226308;28;20189;-66
2022/03/17 06:42:51;;;;;;;4.70;3.87;;;17.20;57.40;;;;;;5226102;28;20277;-63
2022/03/17 06:45:44;;;;;;;4.03;3.63;;;17.20;57.40;;;;;;5226210;28;20286;-66
2022/03/17 06:48:36;;;;;;;4.50;4.03;;;17.20;57.40;;;;;;5225234;28;20663;-65
2022/03/17 06:51:28;;;;;;;4.40;3.90;;;17.20;57.40;;;;;;5225934;28;20652;-66
2022/03/17 06:54:20;;;;;;;4.40;4.00;;;17.20;57.40;;;;;;5225600;28;20584;-66
2022/03/17 06:57:17;;;;;;;4.83;4.30;;;17.20;57.40;;;;;;5225575;28;20223;-65
2022/03/17 07:00:13;;;;;;;4.60;3.87;;;17.20;57.40;;;;;;5224918;28;20224;-65
2022/03/17 07:03:05;;;;;;;4.37;3.97;;;17.20;57.40;;;;;;5224946;28;20189;-66
2022/03/17 07:05:57;;;;;;;4.50;4.10;;;17.20;57.40;;;;;;5218474;28;20198;-67
2022/03/17 07:08:49;;;;;;;14.03;12.43;;;17.20;57.30;;;;;;5223552;28;20208;-65
2022/03/17 07:11:42;;;;;;;15.43;13.83;;;17.20;55.00;;;;;;5224991;28;20193;-66
2022/03/17 07:14:35;;;;;;;17.37;15.43;;;17.20;54.80;;;;;;5225297;28;20229;-67
2022/03/17 07:17:36;;;;;;;20.50;17.13;;;17.10;54.50;;;;;;5224030;28;20209;-66
2022/03/17 07:20:28;;;;;;;19.37;17.20;;;17.10;54.10;;;;;;5220067;28;20277;-66
2022/03/17 07:23:20;;;;;;;20.43;18.17;;;17.10;54.00;;;;;;5225271;28;20246;-66
2022/03/17 07:26:12;;;;;;;20.57;18.37;;;17.10;53.50;;;;;;5225584;28;20197;-66
2022/03/17 07:29:05;;;;;;;21.40;19.13;;;17.00;52.60;;;;;;5225244;28;20193;-66
2022/03/17 07:31:57;;;;;;;21.00;18.80;;;17.00;51.30;;;;;;5224956;28;20553;-67
2022/03/17 07:34:50;;;;;;;23.43;20.90;;;16.90;51.00;;;;;;5225550;28;20216;-66
2022/03/17 07:37:43;;;;;;;23.00;20.50;;;16.90;50.50;;;;;;5224801;28;20576;-67
2022/03/17 07:40:35;;;;;;;24.47;20.67;;;16.80;51.10;;;;;;5223777;28;20209;-67
2022/03/17 07:43:27;;;;;;;22.03;18.80;;;16.80;50.80;;;;;;5223271;28;20200;-66
2022/03/17 07:46:19;;;;;;;22.90;18.10;;;16.80;51.30;;;;;;5223934;28;20195;-67
2022/03/17 07:49:11;;;;;;;18.37;15.70;;;16.80;51.50;;;;;;5223381;28;20204;-66
2022/03/17 07:52:06;;;;;;;17.67;15.17;;;16.80;52.00;;;;;;5222317;28;20670;-66
2022/03/17 07:54:58;;;;;;;17.30;14.97;;;16.80;52.60;;;;;;5190104;28;20218;-63
2022/03/17 07:57:50;;;;;;;17.83;15.93;;;16.90;52.90;;;;;;5205091;28;20198;-63
2022/03/17 08:00:46;;;;;;;19.60;15.87;;;16.90;52.50;;;;;;5216302;28;20204;-63
2022/03/17 08:03:40;;;;;;;17.80;14.57;;;16.90;52.60;;;;;;5225007;28;20267;-63
2022/03/17 08:06:33;;;;;;;18.83;16.43;;;16.90;52.60;;;;;;5224942;28;20201;-64
2022/03/17 08:09:26;;;;;;;18.83;16.83;;;16.90;52.10;;;;;;5224449;28;20567;-63
2022/03/17 08:12:18;;;;;;;19.90;16.93;;;16.90;52.10;;;;;;5224608;28;20207;-63
2022/03/17 08:15:11;;;;;;;19.37;16.53;;;16.90;52.00;;;;;;5224609;28;20224;-64
2022/03/17 08:18:03;;;;;;;17.60;15.63;;;16.90;51.60;;;;;;5227669;28;20193;-63
2022/03/17 08:20:55;;;;;;;19.67;17.50;;;16.90;51.60;;;;;;5228629;28;20575;-63
2022/03/17 08:23:47;;;;;;;18.27;16.00;;;16.90;51.40;;;;;;5228328;28;20262;-65
2022/03/17 08:26:41;;;;;;;19.07;15.80;;;16.90;51.50;;;;;;5228263;28;20193;-63
2022/03/17 08:29:33;;;;;;;20.47;16.53;;;16.90;51.60;;;;;;5227743;28;20201;-63
2022/03/17 08:32:25;;;;;;;17.83;15.93;;;16.80;51.10;;;;;;5226697;28;20192;-64
2022/03/17 08:35:17;;;;;;;18.23;16.33;;;16.90;51.20;;;;;;5229001;28;20215;-63
2022/03/17 08:38:10;;;;;;;17.70;15.73;;;16.90;51.20;;;;;;5228134;28;20225;-63
2022/03/17 08:41:02;;;;;;;17.47;15.67;;;16.90;51.20;;;;;;5227134;28;20197;-64
2022/03/17 08:43:56;;;;;;;19.00;15.40;;;16.90;51.20;;;;;;5228636;28;20213;-64
2022/03/17 08:49:57;;;;;;;15.47;13.87;;;16.90;51.50;;;;;;5228358;28;20656;-62
2022/03/17 08:52:49;;;;;;;14.93;13.30;;;16.90;51.90;;;;;;5227702;28;20268;-63
2022/03/17 08:55:41;;;;;;;13.50;12.10;;;16.90;52.20;;;;;;5228536;28;20220;-63
2022/03/17 08:58:35;;;;;;;13.33;11.83;;;16.90;52.40;;;;;;5227304;28;20668;-63
2022/03/17 09:01:29;;;;;;;11.90;10.57;;;17.00;53.30;;;;;;5227579;28;20872;-63
2022/03/17 09:04:21;;;;;;;11.53;10.33;;;16.90;52.90;;;;;;5226338;28;20213;-62
2022/03/17 09:07:13;;;;;;;11.10;9.90;;;17.00;53.00;;;;;;5227435;28;20225;-62
2022/03/17 09:10:06;;;;;;;11.57;9.47;;;17.00;53.30;;;;;;5227049;28;20201;-63
2022/03/17 09:13:05;;;;;;;10.77;9.63;;;17.00;53.40;;;;;;5226303;28;20197;-63
2022/03/17 09:15:57;;;;;;;9.83;8.67;;;16.90;53.50;;;;;;5227669;28;20338;-63
2022/03/17 09:18:51;;;;;;;8.90;8.00;;;17.00;53.70;;;;;;5227328;28;20201;-63
2022/03/17 09:21:43;;;;;;;9.17;8.27;;;16.90;53.70;;;;;;5206414;28;20616;-67
2022/03/17 09:24:35;;;;;;;9.60;7.87;;;17.00;53.90;;;;;;5218415;28;20209;-67
2022/03/17 09:27:28;;;;;;;9.07;7.70;;;17.00;54.10;;;;;;5226008;28;20205;-67
2022/03/17 09:30:21;;;;;;;8.53;7.70;;;17.10;54.20;;;;;;5226418;28;20232;-63
2022/03/17 09:33:13;;;;;;;7.90;6.90;;;17.00;54.20;;;;;;5206443;28;20648;-64
2022/03/17 09:36:07;;;;;;;8.10;7.30;;;17.10;54.20;;;;;;5205972;28;20409;-63
2022/03/17 09:42:08;;;;;;;8.00;7.20;;;17.00;54.20;;;;;;5226868;28;20211;-63
2022/03/17 09:45:01;;;;;;;9.27;7.37;;;17.00;54.30;;;;;;5227321;28;20235;-64
2022/03/17 09:47:53;;;;;;;8.97;7.53;;;17.00;54.30;;;;;;5226543;28;20224;-64
2022/03/17 09:50:47;;;;;;;7.70;6.90;;;17.00;54.70;;;;;;5226333;28;20684;-64
2022/03/17 09:53:40;;;;;;;7.40;6.60;;;17.00;54.70;;;;;;5226678;28;20196;-64
2022/03/17 09:56:32;;;;;;;7.90;6.77;;;17.00;54.80;;;;;;5226668;28;20208;-65
2022/03/17 09:59:25;;;;;;;7.10;6.40;;;17.00;54.90;;;;;;5226645;28;20199;-65
2022/03/17 10:02:18;;;;;;;6.73;6.03;;;17.10;55.10;;;;;;5226189;28;20276;-66
2022/03/17 10:05:11;;;;;;;7.13;6.43;;;17.10;55.20;;;;;;5240768;28;20212;-65
2022/03/17 10:08:04;;;;;;;7.60;6.83;;;17.10;55.20;;;;;;5247958;28;20726;-65
2022/03/17 10:10:57;;;;;;;6.50;5.90;;;17.10;55.30;;;;;;5247718;28;20192;-64
2022/03/17 10:13:49;;;;;;;6.87;6.23;;;17.10;55.40;;;;;;5237386;28;20225;-67
2022/03/17 10:16:41;;;;;;;6.47;5.87;;;17.10;55.40;;;;;;5226368;28;20676;-65
2022/03/17 10:19:34;;;;;;;6.40;5.80;;;17.10;55.50;;;;;;5226490;28;20199;-67
2022/03/17 10:22:27;;;;;;;7.00;6.30;;;17.10;55.50;;;;;;5226888;28;20201;-64
2022/03/17 10:25:20;;;;;;;6.90;6.07;;;17.10;55.60;;;;;;5225728;28;20217;-65
2022/03/17 10:28:16;;;;;;;6.40;5.80;;;17.10;55.70;;;;;;5226106;28;20213;-65
2022/03/17 10:31:09;;;;;;;6.73;6.03;;;17.10;55.80;;;;;;5205840;28;20708;-65
2022/03/17 10:34:05;;;;;;;6.77;6.10;;;17.20;55.90;;;;;;5223496;28;20217;-66
2022/03/17 10:37:22;;;;;;;6.17;5.57;;;17.10;55.90;;;;;;5232461;28;20189;-65
2022/03/17 10:40:14;;;;;;;6.87;5.80;;;17.10;55.90;;;;;;5209092;28;20236;-64
2022/03/17 10:43:19;;;;;;;6.37;5.77;;;17.10;56.00;;;;;;5223357;28;20683;-67
2022/03/17 10:46:13;;;;;;;6.03;5.47;;;17.10;56.00;;;;;;5220952;28;20655;-64
2022/03/17 10:49:07;;;;;;;6.60;6.00;;;17.10;56.10;;;;;;5225607;28;20221;-65
2022/03/17 10:51:59;;;;;;;6.90;6.10;;;17.10;56.20;;;;;;5214742;28;20579;-64
2022/03/17 10:54:57;;;;;;;6.33;5.73;;;17.10;56.20;;;;;;5225188;28;20217;-64
2022/03/17 10:57:50;;;;;;;6.50;5.83;;;17.10;56.20;;;;;;5225475;28;20219;-65
2022/03/17 11:00:48;;;;;;;5.90;5.23;;;17.10;56.30;;;;;;5224769;28;20193;-65
2022/03/17 11:03:41;;;;;;;6.53;5.87;;;17.20;56.40;;;;;;5224614;28;20580;-66
2022/03/17 11:06:33;;;;;;;6.30;5.70;;;17.20;56.50;;;;;;5229106;28;20657;-66
2022/03/17 11:09:27;;;;;;;6.43;5.73;;;17.20;56.50;;;;;;5225605;28;20228;-66
2022/03/17 11:12:20;;;;;;;6.07;5.47;;;17.20;56.40;;;;;;5225576;28;20189;-63
2022/03/17 11:15:12;;;;;;;7.27;6.30;;;17.20;56.40;;;;;;5205527;28;20727;-63
2022/03/17 11:18:07;;;;;;;6.53;5.83;;;17.20;56.50;;;;;;5215734;28;20201;-63
2022/03/17 11:21:27;;;;;;;7.87;5.53;;;17.20;56.50;;;;;;5225374;28;20200;-64
2022/03/17 11:24:20;;;;;;;7.20;5.00;;;17.10;56.50;;;;;;5236553;28;20213;-63
2022/03/17 11:27:14;;;;;;;6.10;5.37;;;17.10;56.60;;;;;;5231635;28;20193;-64
2022/03/17 11:30:14;;;;;;;5.87;5.23;;;17.10;56.70;;;;;;5214468;28;20278;-64
2022/03/17 11:33:21;;;;;;;6.00;5.40;;;17.10;56.70;;;;;;5223434;28;20580;-64
2022/03/17 11:36:21;;;;;;;6.63;5.40;;;17.10;56.80;;;;;;5228077;28;20714;-63
2022/03/17 11:39:18;;;;;;;6.00;5.00;;;17.10;56.90;;;;;;5218333;28;20356;-63
2022/03/17 11:42:32;;;;;;;6.10;5.50;;;17.10;56.90;;;;;;5220086;28;20224;-65
2022/03/17 11:45:41;;;;;;;6.10;5.00;;;17.10;57.00;;;;;;5220836;28;20224;-63
2022/03/17 11:48:38;;;;;;;5.90;4.67;;;17.10;57.00;;;;;;5224634;28;20213;-63
2022/03/17 11:51:30;;;;;;;6.80;4.80;;;17.10;57.10;;;;;;5224086;28;20201;-63
2022/03/17 11:54:22;;;;;;;5.93;4.60;;;17.10;57.20;;;;;;5223736;28;20221;-64
2022/03/17 11:57:14;;;;;;;5.40;4.63;;;17.10;57.20;;;;;;5222909;28;20297;-63
2022/03/17 12:00:07;;;;;;;5.17;4.67;;;17.10;57.30;;;;;;5213143;28;20660;-65
2022/03/17 12:03:05;;;;;;;7.27;4.80;;;17.10;57.30;;;;;;5203699;28;20205;-64
2022/03/17 12:06:14;;;;;;;4.80;4.30;;;17.10;57.30;;;;;;5208770;28;20660;-64
2022/03/17 12:09:10;;;;;;;6.13;4.40;;;17.20;57.40;;;;;;5224446;28;20320;-64
2022/03/17 12:12:16;;;;;;;4.90;4.30;;;17.20;57.40;;;;;;5224131;28;20209;-63
2022/03/17 12:15:10;;;;;;;5.47;4.60;;;17.20;57.50;;;;;;5205029;28;20299;-68
2022/03/17 12:18:15;;;;;;;4.80;4.30;;;17.20;57.50;;;;;;5214310;28;20572;-64
2022/03/17 12:21:08;;;;;;;6.97;4.80;;;17.20;57.50;;;;;;5223354;28;20553;-64
2022/03/17 12:24:03;;;;;;;5.00;4.20;;;17.20;57.50;;;;;;5224289;28;20304;-64
2022/03/17 12:27:03;;;;;;;6.07;4.63;;;17.20;57.60;;;;;;5226274;28;20591;-63
2022/03/17 12:29:58;;;;;;;4.63;3.83;;;17.20;57.50;;;;;;5211401;28;20209;-64
2022/03/17 12:32:52;;;;;;;5.47;4.20;;;17.20;57.40;;;;;;5217806;28;20197;-66
2022/03/17 12:35:46;;;;;;;5.60;3.80;;;17.20;57.40;;;;;;5220174;28;20224;-65
2022/03/17 12:38:39;;;;;;;6.47;3.83;;;17.20;57.50;;;;;;5200714;28;20205;-65
2022/03/17 12:41:32;;;;;;;5.10;3.90;;;17.20;57.50;;;;;;5215270;28;20197;-64
2022/03/17 12:44:25;;;;;;;4.00;3.60;;;17.20;57.50;;;;;;5228370;28;20298;-65
2022/03/17 12:47:18;;;;;;;5.30;3.93;;;17.20;57.50;;;;;;5223626;28;20189;-64
2022/03/17 12:50:13;;;;;;;4.00;3.37;;;17.20;57.50;;;;;;5229060;28;20719;-63
2022/03/17 12:53:05;;;;;;;5.43;3.90;;;17.20;57.60;;;;;;5230654;28;20201;-67
2022/03/17 12:55:57;;;;;;;6.07;3.70;;;17.20;57.60;;;;;;5231465;28;20189;-65
2022/03/17 12:58:50;;;;;;;3.83;3.10;;;17.20;57.50;;;;;;5221025;28;20186;-66
2022/03/17 13:01:43;;;;;;;4.30;3.13;;;17.20;57.50;;;;;;5221345;28;20668;-66
2022/03/17 13:04:37;;;;;;;3.87;3.30;;;17.30;57.50;;;;;;5224977;28;20755;-63
2022/03/17 13:07:29;;;;;;;4.43;2.80;;;17.20;57.50;;;;;;5243263;28;20192;-64
2022/03/17 13:10:26;;;;;;;4.17;2.90;;;17.30;57.40;;;;;;5246485;28;20680;-63
2022/03/17 13:16:30;;;;;;;4.30;2.87;;;17.30;57.50;;;;;;5244989;28;20223;-64
2022/03/17 13:19:22;;;;;;;3.57;2.63;;;17.30;57.50;;;;;;5222536;28;20198;-64
2022/03/17 13:22:21;;;;;;;3.20;2.67;;;17.30;57.60;;;;;;5230819;28;20201;-64
2022/03/17 13:25:16;;;;;;;3.93;2.70;;;17.20;57.60;;;;;;5233396;28;20557;-63
2022/03/17 13:28:12;;;;;;;5.53;3.00;;;17.20;57.60;;;;;;5226146;28;20212;-64
2022/03/17 13:31:04;;;;;;;4.57;2.60;;;17.20;57.60;;;;;;5227221;28;20201;-63
2022/03/17 13:33:58;;;;;;;4.23;2.50;;;17.20;57.60;;;;;;5226301;28;20213;-63
2022/03/17 13:36:54;;;;;;;4.57;2.67;;;17.20;57.60;;;;;;5226949;28;20211;-63
2022/03/17 13:39:47;;;;;;;7.10;2.50;;;17.20;57.70;;;;;;5226873;28;20193;-63
2022/03/17 13:42:59;;;;;;;3.00;2.20;;;17.20;57.70;;;;;;5225669;28;20216;-66
2022/03/17 13:45:51;;;;;;;3.33;2.47;;;17.20;57.80;;;;;;5227543;28;20811;-67
2022/03/17 13:48:44;;;;;;;2.67;2.20;;;17.20;57.80;;;;;;5227031;28;20603;-66
2022/03/17 13:51:37;;;;;;;4.17;2.60;;;17.20;57.80;;;;;;5208522;28;20194;-66
2022/03/17 13:54:30;;;;;;;2.47;2.07;;;17.30;57.80;;;;;;5228737;28;20212;-66
2022/03/17 13:57:23;;;;;;;4.60;2.20;;;17.30;57.80;;;;;;5213128;28;20193;-67
2022/03/17 14:00:20;;;;;;;4.47;2.23;;;17.30;57.80;;;;;;5218824;28;20323;-69
2022/03/17 14:03:18;;;;;;;3.73;2.37;;;17.30;57.70;;;;;;5236148;28;20283;-67
2022/03/17 14:06:14;;;;;;;2.13;1.73;;;17.30;57.80;;;;;;5221977;28;20194;-68
2022/03/17 14:09:12;;;;;;;4.00;2.20;;;17.30;57.70;;;;;;5218316;28;20346;-67
2022/03/17 14:12:04;;;;;;;2.27;1.80;;;17.30;57.70;;;;;;5222606;28;20197;-68
2022/03/17 14:14:57;;;;;;;4.13;2.30;;;17.40;57.80;;;;;;5223130;28;20300;-67
2022/03/17 14:17:50;;;;;;;2.77;1.90;;;17.40;57.80;;;;;;5211035;28;20332;-65
2022/03/17 14:20:42;;;;;;;3.63;1.70;;;17.40;57.90;;;;;;5223710;28;20189;-65
2022/03/17 14:26:48;;;;;;;3.33;2.00;;;17.40;57.80;;;;;;5211900;28;20630;-65
2022/03/17 14:29:40;;;;;;;1.93;1.60;;;17.30;57.80;;;;;;5224472;28;20749;-68
2022/03/17 14:32:35;;;;;;;2.07;1.70;;;17.30;57.80;;;;;;5224118;28;20572;-68
2022/03/17 14:35:27;;;;;;;3.70;2.13;;;17.30;57.90;;;;;;5225870;28;20205;-68
2022/03/17 14:38:20;;;;;;;3.17;1.90;;;17.30;58.00;;;;;;5225758;28;20577;-68
2022/03/17 14:41:15;;;;;;;1.63;1.40;;;17.30;57.90;;;;;;5225638;28;20197;-69
2022/03/17 14:44:10;;;;;;;3.40;1.93;;;17.30;57.90;;;;;;5225331;28;20588;-64
2022/03/17 14:47:02;;;;;;;2.90;1.77;;;17.30;57.90;;;;;;5225429;28;20208;-64
2022/03/17 14:49:55;;;;;;;8.03;1.70;;;17.40;57.90;;;;;;5224201;28;20209;-62
2022/03/17 14:52:48;;;;;;;3.70;1.70;;;17.30;58.40;;;;;;5225123;28;20197;-64
2022/03/17 14:55:40;;;;;;;2.83;1.30;;;17.30;57.80;;;;;;5225785;28;20221;-65
2022/03/17 14:58:33;;;;;;;3.57;1.50;;;17.30;57.80;;;;;;5221985;28;20567;-64
2022/03/17 15:01:27;;;;;;;2.57;1.73;;;17.30;57.80;;;;;;5225233;28;20189;-64
2022/03/17 15:04:19;;;;;;;4.33;1.90;;;17.30;57.80;;;;;;5224924;28;20228;-64
2022/03/17 15:07:12;;;;;;;3.43;1.80;;;17.30;57.70;;;;;;5225282;28;20197;-65
2022/03/17 15:10:04;;;;;;;2.13;1.57;;;17.30;57.80;;;;;;5225091;28;20223;-65
2022/03/17 15:12:56;;;;;;;1.83;1.60;;;17.30;57.90;;;;;;5238340;28;20201;-63
2022/03/17 15:15:48;;;;;;;3.13;1.60;;;17.20;57.90;;;;;;5246174;28;20225;-64
2022/03/17 15:18:42;;;;;;;3.07;1.53;;;17.30;58.00;;;;;;5205284;28;20196;-64
2022/03/17 15:21:34;;;;;;;2.90;1.50;;;17.30;58.00;;;;;;5219746;28;20193;-65